createdAt,value
2018-05-09T00:01:35.531Z,52.15
2018-05-09T00:04:03.118Z,52.28
2018-05-09T00:06:30.754Z,52.37
2018-05-09T00:08:58.375Z,52.19
2018-05-09T00:11:25.963Z,52.27
2018-05-09T00:13:53.591Z,52.35
2018-05-09T00:16:21.189Z,52.15
2018-05-09T00:18:48.774Z,52.23
2018-05-09T00:21:16.413Z,52.32
2018-05-09T00:23:43.998Z,52.66
2018-05-09T00:26:11.609Z,52.85
2018-05-09T00:28:39.242Z,52.97
2018-05-09T00:31:06.835Z,52.83
2018-05-09T00:33:34.427Z,53.39
2018-05-09T00:36:02.059Z,53.38
2018-05-09T00:38:29.654Z,53.38
2018-05-09T00:40:57.251Z,53.55
2018-05-09T00:43:24.890Z,53.57
2018-05-09T00:45:52.486Z,53.13
2018-05-09T00:48:20.073Z,53.48
2018-05-09T00:50:47.699Z,53.96
2018-05-09T00:53:15.289Z,53.81
2018-05-09T00:55:42.886Z,54.33
2018-05-09T00:58:10.517Z,54.15
2018-05-09T01:00:38.110Z,54.40
2018-05-09T01:03:05.716Z,54.42
2018-05-09T01:05:33.384Z,54.67
2018-05-09T01:08:00.979Z,54.72
2018-05-09T01:10:28.567Z,54.53
2018-05-09T01:12:56.208Z,55.06
2018-05-09T01:15:23.799Z,55.13
2018-05-09T01:17:51.379Z,55.10
2018-05-09T01:20:19.012Z,55.61
2018-05-09T01:22:46.618Z,55.50
2018-05-09T01:25:14.202Z,55.44
2018-05-09T01:27:42.082Z,55.49
2018-05-09T01:30:09.670Z,55.87
2018-05-09T01:32:37.266Z,55.85
2018-05-09T01:35:04.892Z,55.95
2018-05-09T01:37:32.486Z,55.84
2018-05-09T01:40:00.108Z,56.02
2018-05-09T01:42:27.714Z,55.97
2018-05-09T01:44:55.325Z,56.47
2018-05-09T01:47:22.916Z,56.41
2018-05-09T01:49:50.549Z,56.61
2018-05-09T01:52:18.139Z,56.58
2018-05-09T01:54:45.736Z,56.44
2018-05-09T01:57:13.366Z,56.30
2018-05-09T01:59:40.959Z,56.46
2018-05-09T02:02:08.551Z,56.56
2018-05-09T02:04:36.179Z,56.79
2018-05-09T02:07:03.770Z,56.87
2018-05-09T02:09:31.361Z,56.87
2018-05-09T02:11:59.007Z,57.18
2018-05-09T02:14:26.623Z,57.41
2018-05-09T02:16:54.215Z,59.15
2018-05-09T02:19:21.838Z,58.54
2018-05-09T02:21:49.443Z,59.46
2018-05-09T02:24:17.031Z,59.19
2018-05-09T02:26:44.656Z,58.32
2018-05-09T02:29:12.274Z,58.72
2018-05-09T02:31:39.871Z,57.87
2018-05-09T02:34:07.515Z,57.63
2018-05-09T02:36:35.111Z,57.34
2018-05-09T02:39:02.709Z,57.24
2018-05-09T02:41:30.336Z,56.77
2018-05-09T02:43:57.931Z,56.93
2018-05-09T02:46:25.521Z,56.40
2018-05-09T02:48:53.139Z,55.96
2018-05-09T02:51:20.728Z,55.99
2018-05-09T02:53:48.327Z,55.67
2018-05-09T02:56:15.959Z,55.67
2018-05-09T02:58:43.549Z,55.67
2018-05-09T03:01:11.144Z,55.55
2018-05-09T03:03:38.770Z,55.77
2018-05-09T03:06:06.371Z,55.53
2018-05-09T03:08:33.959Z,55.39
2018-05-09T03:11:01.580Z,55.43
2018-05-09T03:13:29.180Z,55.43
2018-05-09T03:15:56.773Z,55.58
2018-05-09T03:18:24.418Z,55.50
2018-05-09T03:20:52.011Z,55.37
2018-05-09T03:23:19.617Z,55.51
2018-05-09T03:25:47.251Z,55.17
2018-05-09T03:28:14.851Z,55.13
2018-05-09T03:30:42.461Z,55.70
2018-05-09T03:33:10.088Z,55.75
2018-05-09T03:35:37.703Z,56.25
2018-05-09T03:38:05.288Z,56.25
2018-05-09T03:40:33.178Z,56.33
2018-05-09T03:43:00.841Z,56.05
2018-05-09T03:45:28.442Z,56.40
2018-05-09T03:47:56.063Z,56.65
2018-05-09T03:50:23.665Z,56.48
2018-05-09T03:52:51.258Z,56.11
2018-05-09T03:55:18.875Z,56.17
2018-05-09T03:57:46.470Z,56.12
2018-05-09T04:00:14.073Z,56.18
2018-05-09T04:02:53.511Z,56.46
2018-05-09T04:05:32.963Z,56.32
2018-05-09T04:08:14.089Z,56.65
2018-05-09T04:10:41.679Z,57.01
2018-05-09T04:13:09.320Z,56.95
2018-05-09T04:15:36.927Z,56.97
2018-05-09T04:18:04.591Z,57.10
2018-05-09T04:20:32.183Z,57.19
2018-05-09T04:22:59.819Z,57.13
2018-05-09T04:25:27.421Z,57.10
2018-05-09T04:27:55.042Z,57.33
2018-05-09T04:30:22.670Z,57.44
2018-05-09T04:32:50.267Z,57.37
2018-05-09T04:35:17.863Z,57.50
2018-05-09T04:37:45.478Z,57.92
2018-05-09T04:40:13.065Z,58.02
2018-05-09T04:42:40.662Z,57.85
2018-05-09T04:45:08.298Z,57.96
2018-05-09T04:47:35.897Z,58.33
2018-05-09T04:50:03.489Z,58.59
2018-05-09T04:52:31.132Z,58.74
2018-05-09T04:54:58.763Z,59.12
2018-05-09T04:57:26.354Z,59.27
2018-05-09T04:59:53.987Z,59.58
2018-05-09T05:02:21.575Z,59.39
2018-05-09T05:04:49.190Z,59.25
2018-05-09T05:07:16.836Z,59.05
2018-05-09T05:09:44.444Z,59.16
2018-05-09T05:12:12.246Z,58.67
2018-05-09T05:14:40.198Z,58.82
2018-05-09T05:17:07.802Z,58.47
2018-05-09T05:19:35.414Z,58.38
2018-05-09T05:22:03.046Z,58.08
2018-05-09T05:24:30.663Z,57.71
2018-05-09T05:26:58.281Z,57.84
2018-05-09T05:29:25.940Z,57.57
2018-05-09T05:31:53.530Z,57.09
2018-05-09T05:34:21.124Z,57.05
2018-05-09T05:36:48.762Z,57.34
2018-05-09T05:39:16.429Z,57.83
2018-05-09T05:41:44.030Z,57.96
2018-05-09T05:44:11.647Z,57.82
2018-05-09T05:46:39.240Z,57.17
2018-05-09T05:49:06.836Z,56.64
2018-05-09T05:51:34.482Z,56.63
2018-05-09T05:54:02.096Z,56.55
2018-05-09T05:56:29.756Z,56.57
2018-05-09T05:58:57.387Z,56.24
2018-05-09T06:01:25.074Z,55.79
2018-05-09T06:03:52.668Z,56.35
2018-05-09T06:06:20.357Z,56.60
2018-05-09T06:08:47.925Z,56.05
2018-05-09T06:11:15.521Z,55.36
2018-05-09T06:13:43.172Z,55.26
2018-05-09T06:16:10.777Z,55.79
2018-05-09T06:18:38.405Z,55.48
2018-05-09T06:21:06.030Z,55.37
2018-05-09T06:23:33.631Z,55.44
2018-05-09T06:26:01.220Z,55.15
2018-05-09T06:28:28.846Z,54.96
2018-05-09T06:30:56.502Z,54.92
2018-05-09T06:33:24.076Z,54.66
2018-05-09T06:35:51.723Z,55.20
2018-05-09T06:38:19.333Z,55.26
2018-05-09T06:40:46.930Z,55.12
2018-05-09T06:43:14.565Z,54.79
2018-05-09T06:45:42.198Z,54.57
2018-05-09T06:48:09.803Z,54.36
2018-05-09T06:50:38.439Z,54.37
2018-05-09T06:53:06.029Z,54.74
2018-05-09T06:55:33.638Z,54.04
2018-05-09T06:58:01.931Z,54.08
2018-05-09T07:00:29.526Z,54.23
2018-05-09T07:02:57.411Z,53.75
2018-05-09T07:05:25.029Z,53.23
2018-05-09T07:07:52.682Z,53.04
2018-05-09T07:10:20.283Z,53.04
2018-05-09T07:12:47.905Z,53.39
2018-05-09T07:15:15.543Z,53.62
2018-05-09T07:17:43.138Z,53.66
2018-05-09T07:20:10.774Z,53.92
2018-05-09T07:22:38.354Z,53.01
2018-05-09T07:25:05.968Z,52.85
2018-05-09T07:27:33.940Z,52.70
2018-05-09T07:30:01.534Z,52.92
2018-05-09T07:32:29.125Z,52.50
2018-05-09T07:34:56.738Z,52.35
2018-05-09T07:37:24.326Z,52.27
2018-05-09T07:39:51.916Z,52.30
2018-05-09T07:42:19.546Z,52.13
2018-05-09T07:44:47.145Z,52.05
2018-05-09T07:47:14.731Z,51.90
2018-05-09T07:49:42.495Z,51.97
2018-05-09T07:52:10.082Z,52.05
2018-05-09T07:54:37.679Z,51.36
2018-05-09T07:57:05.531Z,51.37
2018-05-09T07:59:33.127Z,52.05
2018-05-09T08:02:00.754Z,51.90
2018-05-09T08:04:28.395Z,51.93
2018-05-09T08:06:55.986Z,51.01
2018-05-09T08:09:23.578Z,51.27
2018-05-09T08:11:51.197Z,51.13
2018-05-09T08:14:19.092Z,50.53
2018-05-09T08:16:46.690Z,50.54
2018-05-09T08:19:16.047Z,50.45
2018-05-09T08:21:43.732Z,50.42
2018-05-09T08:24:11.323Z,49.70
2018-05-09T08:26:38.963Z,49.90
2018-05-09T08:29:06.549Z,49.31
2018-05-09T08:31:34.139Z,48.74
2018-05-09T08:34:01.780Z,48.14
2018-05-09T08:36:29.375Z,47.89
2018-05-09T08:38:57.086Z,47.92
2018-05-09T08:41:25.125Z,47.72
2018-05-09T08:43:52.725Z,47.42
2018-05-09T08:46:20.320Z,46.81
2018-05-09T08:48:48.177Z,46.59
2018-05-09T08:51:15.776Z,46.49
2018-05-09T08:53:43.376Z,45.13
2018-05-09T08:56:10.991Z,43.56
2018-05-09T08:58:38.590Z,43.04
2018-05-09T09:01:06.175Z,42.01
2018-05-09T09:03:33.829Z,42.70
2018-05-09T09:06:01.416Z,42.38
2018-05-09T09:08:29.025Z,43.46
2018-05-09T09:10:56.735Z,43.17
2018-05-09T09:13:24.294Z,43.62
2018-05-09T09:15:51.883Z,43.37
2018-05-09T09:18:19.516Z,41.95
2018-05-09T09:20:47.126Z,42.42
2018-05-09T09:23:14.724Z,40.81
2018-05-09T09:25:42.368Z,40.64
2018-05-09T09:28:09.952Z,40.43
2018-05-09T09:30:37.548Z,40.95
2018-05-09T09:33:05.300Z,39.98
2018-05-09T09:35:32.884Z,40.27
2018-05-09T09:38:00.479Z,39.93
2018-05-09T09:40:28.095Z,39.71
2018-05-09T09:42:57.198Z,39.38
2018-05-09T09:45:24.786Z,38.16
2018-05-09T09:47:52.414Z,39.69
2018-05-09T09:50:20.010Z,41.21
2018-05-09T09:52:47.592Z,41.90
2018-05-09T09:55:15.597Z,40.34
2018-05-09T09:57:43.181Z,38.42
2018-05-09T10:00:10.781Z,38.46
2018-05-09T10:02:38.446Z,37.51
2018-05-09T10:05:06.050Z,38.40
2018-05-09T10:07:33.639Z,38.14
2018-05-09T10:10:01.295Z,38.73
2018-05-09T10:12:28.899Z,38.15
2018-05-09T10:14:56.491Z,38.78
2018-05-09T10:17:24.291Z,39.93
2018-05-09T10:19:51.931Z,38.13
2018-05-09T10:22:19.529Z,36.47
2018-05-09T10:24:47.142Z,33.88
2018-05-09T10:27:14.726Z,33.96
2018-05-09T10:29:42.322Z,33.83
2018-05-09T10:32:09.939Z,33.89
2018-05-09T10:34:37.533Z,34.93
2018-05-09T10:37:05.123Z,34.90
2018-05-09T10:39:32.748Z,35.90
2018-05-09T10:42:00.346Z,34.89
2018-05-09T10:44:27.925Z,35.69
2018-05-09T10:46:55.560Z,36.00
2018-05-09T10:49:23.150Z,31.61
2018-05-09T10:51:50.733Z,33.36
2018-05-09T10:54:18.350Z,33.83
2018-05-09T10:56:45.972Z,34.70
2018-05-09T10:59:14.483Z,33.65
2018-05-09T11:01:42.133Z,34.74
2018-05-09T11:04:09.729Z,34.60
2018-05-09T11:06:37.325Z,34.35
2018-05-09T11:09:05.707Z,34.05
2018-05-09T11:11:33.287Z,35.15
2018-05-09T11:14:00.941Z,35.83
2018-05-09T11:16:28.565Z,34.36
2018-05-09T11:18:56.153Z,35.08
2018-05-09T11:21:23.739Z,35.51
2018-05-09T11:23:51.355Z,32.84
2018-05-09T11:26:18.945Z,32.88
2018-05-09T11:28:46.535Z,32.27
2018-05-09T11:31:14.161Z,31.80
2018-05-09T11:33:41.760Z,31.12
2018-05-09T11:36:09.346Z,32.30
2018-05-09T11:38:36.962Z,30.81
2018-05-09T11:41:04.604Z,30.82
2018-05-09T11:43:32.174Z,31.51
2018-05-09T11:45:59.802Z,32.01
2018-05-09T11:48:27.394Z,32.84
2018-05-09T11:50:54.983Z,33.43
2018-05-09T11:53:22.599Z,33.62
2018-05-09T11:55:50.183Z,33.90
2018-05-09T11:58:17.778Z,32.53
2018-05-09T12:00:45.394Z,33.02
2018-05-09T12:03:13.203Z,33.09
2018-05-09T12:05:40.782Z,31.36
2018-05-09T12:08:08.405Z,32.10
2018-05-09T12:10:36.214Z,31.29
2018-05-09T12:13:04.009Z,31.14
2018-05-09T12:15:31.633Z,31.91
2018-05-09T12:17:59.363Z,31.95
2018-05-09T12:20:26.946Z,30.96
2018-05-09T12:22:54.639Z,31.16
2018-05-09T12:25:22.242Z,31.11
2018-05-09T12:27:49.826Z,31.10
2018-05-09T12:30:17.463Z,30.88
2018-05-09T12:32:45.205Z,29.93
2018-05-09T12:35:13.008Z,30.16
2018-05-09T12:37:40.639Z,29.77
2018-05-09T12:40:08.227Z,29.47
2018-05-09T12:42:35.821Z,29.83
2018-05-09T12:45:03.445Z,30.54
2018-05-09T12:47:31.022Z,30.89
2018-05-09T12:49:58.608Z,31.31
2018-05-09T12:52:26.239Z,31.80
2018-05-09T12:54:53.822Z,31.00
2018-05-09T12:57:21.430Z,30.09
2018-05-09T12:59:49.042Z,29.43
2018-05-09T13:02:16.630Z,29.46
2018-05-09T13:04:44.215Z,28.11
2018-05-09T13:07:11.911Z,28.44
2018-05-09T13:09:39.463Z,28.65
2018-05-09T13:12:07.105Z,28.20
2018-05-09T13:14:35.286Z,28.69
2018-05-09T13:17:02.876Z,29.62
2018-05-09T13:19:30.461Z,29.03
2018-05-09T13:21:58.074Z,28.42
2018-05-09T13:24:26.854Z,29.80
2018-05-09T13:26:54.444Z,30.61
2018-05-09T13:29:22.063Z,30.35
2018-05-09T13:31:49.669Z,30.77
2018-05-09T13:34:17.259Z,30.78
2018-05-09T13:36:44.881Z,29.46
2018-05-09T13:39:12.478Z,27.29
2018-05-09T13:41:40.066Z,25.97
2018-05-09T13:44:07.714Z,24.95
2018-05-09T13:46:35.484Z,23.31
2018-05-09T13:49:03.481Z,22.61
2018-05-09T13:51:31.099Z,21.50
2018-05-09T13:53:58.773Z,21.53
2018-05-09T13:56:26.299Z,21.90
2018-05-09T13:58:53.930Z,20.62
2018-05-09T14:01:24.143Z,20.59
2018-05-09T14:03:51.753Z,21.84
2018-05-09T14:06:19.538Z,22.86
2018-05-09T14:08:47.151Z,24.70
2018-05-09T14:11:14.750Z,25.56
2018-05-09T14:13:42.414Z,26.39
2018-05-09T14:16:10.019Z,26.46
2018-05-09T14:18:37.612Z,27.56
2018-05-09T14:21:05.246Z,27.36
2018-05-09T14:23:32.838Z,27.85
2018-05-09T14:26:00.431Z,28.88
2018-05-09T14:28:28.066Z,29.07
2018-05-09T14:30:55.663Z,28.95
2018-05-09T14:33:23.301Z,28.98
2018-05-09T14:35:50.929Z,29.44
2018-05-09T14:38:18.524Z,30.10
2018-05-09T14:40:46.302Z,30.54
2018-05-09T14:43:13.874Z,32.59
2018-05-09T14:45:41.491Z,33.48
2018-05-09T14:48:09.092Z,33.65
2018-05-09T14:50:36.795Z,33.40
2018-05-09T14:53:04.391Z,31.92
2018-05-09T14:55:32.068Z,29.95
2018-05-09T14:58:00.180Z,30.41
2018-05-09T15:00:27.783Z,31.62
2018-05-09T15:02:55.378Z,31.60
2018-05-09T15:05:22.999Z,31.47
2018-05-09T15:07:50.657Z,31.52
2018-05-09T15:10:18.249Z,30.45
2018-05-09T15:12:45.878Z,30.39
2018-05-09T15:15:13.471Z,31.07
2018-05-09T15:17:41.349Z,30.88
2018-05-09T15:20:09.385Z,31.95
2018-05-09T15:22:36.973Z,33.26
2018-05-09T15:25:04.566Z,33.07
2018-05-09T15:27:32.224Z,33.33
2018-05-09T15:29:59.831Z,34.39
2018-05-09T15:32:27.423Z,34.60
2018-05-09T15:34:55.042Z,34.86
2018-05-09T15:37:22.648Z,34.77
2018-05-09T15:39:50.237Z,33.96
2018-05-09T15:42:17.864Z,32.96
2018-05-09T15:44:45.518Z,33.71
2018-05-09T15:47:13.207Z,31.72
2018-05-09T15:49:40.840Z,32.28
2018-05-09T15:52:08.446Z,32.45
2018-05-09T15:54:36.041Z,32.35
2018-05-09T15:57:03.677Z,32.16
2018-05-09T15:59:31.275Z,32.46
2018-05-09T16:01:58.869Z,32.97
2018-05-09T16:04:26.502Z,32.83
2018-05-09T16:06:54.093Z,32.03
2018-05-09T16:09:21.685Z,32.16
2018-05-09T16:11:49.522Z,32.25
2018-05-09T16:14:17.115Z,32.11
2018-05-09T16:16:44.734Z,32.04
2018-05-09T16:19:12.513Z,30.91
2018-05-09T16:21:40.104Z,31.17
2018-05-09T16:24:07.699Z,31.27
2018-05-09T16:26:35.326Z,31.15
2018-05-09T16:29:02.934Z,30.90
2018-05-09T16:31:30.535Z,31.87
2018-05-09T16:33:58.185Z,31.71
2018-05-09T16:36:25.772Z,33.41
2018-05-09T16:38:53.364Z,33.44
2018-05-09T16:41:21.006Z,33.60
2018-05-09T16:43:48.592Z,33.34
2018-05-09T16:46:16.823Z,33.08
2018-05-09T16:48:44.491Z,33.37
2018-05-09T16:51:12.102Z,33.63
2018-05-09T16:53:39.692Z,33.77
2018-05-09T16:56:07.514Z,33.92
2018-05-09T16:58:35.104Z,34.17
2018-05-09T17:01:02.707Z,32.47
2018-05-09T17:03:30.340Z,32.59
2018-05-09T17:05:57.927Z,32.65
2018-05-09T17:08:25.550Z,31.28
2018-05-09T17:10:53.166Z,31.34
2018-05-09T17:13:20.750Z,31.03
2018-05-09T17:15:48.346Z,30.51
2018-05-09T17:18:15.986Z,31.07
2018-05-09T17:20:43.581Z,31.17
2018-05-09T17:23:11.173Z,31.62
2018-05-09T17:25:38.971Z,32.01
2018-05-09T17:28:06.567Z,32.59
2018-05-09T17:30:34.251Z,32.41
2018-05-09T17:33:01.811Z,32.83
2018-05-09T17:35:29.402Z,32.73
2018-05-09T17:37:57.018Z,32.87
2018-05-09T17:40:24.669Z,33.23
2018-05-09T17:42:52.254Z,33.03
2018-05-09T17:45:19.850Z,33.26
2018-05-09T17:47:47.476Z,33.28
2018-05-09T17:50:15.074Z,33.56
2018-05-09T17:52:42.665Z,34.02
2018-05-09T17:55:10.302Z,34.62
2018-05-09T17:57:37.912Z,35.14
2018-05-09T18:00:05.518Z,36.10
2018-05-09T18:02:33.148Z,36.31
2018-05-09T18:05:00.739Z,36.94
2018-05-09T18:07:28.333Z,37.38
2018-05-09T18:09:55.955Z,37.86
2018-05-09T18:12:23.552Z,38.37
2018-05-09T18:14:51.172Z,38.77
2018-05-09T18:17:18.798Z,38.66
2018-05-09T18:19:46.394Z,38.67
2018-05-09T18:22:13.983Z,38.79
2018-05-09T18:24:41.668Z,38.90
2018-05-09T18:27:09.250Z,38.99
2018-05-09T18:29:36.843Z,39.07
2018-05-09T18:32:04.473Z,39.07
2018-05-09T18:34:32.069Z,39.28
2018-05-09T18:36:59.664Z,39.51
2018-05-09T18:39:27.282Z,39.64
2018-05-09T18:41:54.884Z,39.73
2018-05-09T18:44:22.475Z,39.92
2018-05-09T18:46:50.119Z,40.18
2018-05-09T18:49:17.726Z,40.54
2018-05-09T18:51:45.329Z,40.64
2018-05-09T18:54:13.156Z,41.02
2018-05-09T18:56:40.775Z,41.20
2018-05-09T18:59:08.398Z,41.38
2018-05-09T19:01:36.055Z,41.59
2018-05-09T19:04:03.651Z,41.82
2018-05-09T19:06:32.224Z,42.09
2018-05-09T19:08:59.823Z,42.84
2018-05-09T19:11:27.408Z,43.77
2018-05-09T19:13:54.992Z,43.87
2018-05-09T19:16:22.639Z,43.98
2018-05-09T19:18:50.287Z,44.51
2018-05-09T19:21:17.962Z,44.59
2018-05-09T19:23:45.585Z,44.73
2018-05-09T19:26:13.179Z,44.85
2018-05-09T19:28:40.827Z,44.75
2018-05-09T19:31:08.435Z,45.10
2018-05-09T19:33:36.026Z,45.25
2018-05-09T19:36:03.621Z,45.29
2018-05-09T19:38:31.250Z,45.64
2018-05-09T19:40:58.863Z,45.85
2018-05-09T19:43:26.462Z,45.95
2018-05-09T19:45:54.103Z,46.16
2018-05-09T19:48:21.692Z,46.24
2018-05-09T19:50:49.282Z,46.40
2018-05-09T19:53:16.930Z,46.32
2018-05-09T19:55:44.514Z,46.28
2018-05-09T19:58:12.104Z,46.17
2018-05-09T20:00:39.736Z,46.16
2018-05-09T20:03:07.329Z,46.21
2018-05-09T20:05:34.919Z,46.42
2018-05-09T20:08:02.545Z,46.77
2018-05-09T20:10:30.168Z,46.62
2018-05-09T20:12:57.758Z,46.85
2018-05-09T20:15:25.395Z,46.96
2018-05-09T20:17:52.985Z,47.20
2018-05-09T20:20:20.566Z,47.15
2018-05-09T20:22:48.255Z,47.30
2018-05-09T20:25:15.865Z,47.48
2018-05-09T20:27:43.592Z,47.75
2018-05-09T20:30:16.992Z,47.73
2018-05-09T20:32:44.591Z,47.69
2018-05-09T20:35:12.190Z,48.21
2018-05-09T20:37:40.053Z,48.40
2018-05-09T20:40:07.650Z,48.72
2018-05-09T20:42:35.251Z,48.80
2018-05-09T20:45:03.051Z,48.94
2018-05-09T20:47:30.639Z,49.00
2018-05-09T20:49:58.228Z,49.05
2018-05-09T20:52:25.863Z,49.22
2018-05-09T20:54:53.456Z,49.35
2018-05-09T20:57:21.055Z,49.96
2018-05-09T20:59:48.697Z,50.08
2018-05-09T21:02:16.294Z,50.50
2018-05-09T21:04:43.889Z,50.53
2018-05-09T21:07:11.512Z,50.54
2018-05-09T21:09:39.109Z,50.78
2018-05-09T21:12:09.581Z,50.24
2018-05-09T21:14:37.302Z,50.26
2018-05-09T21:17:04.853Z,49.92
2018-05-09T21:19:32.474Z,50.42
2018-05-09T21:22:00.128Z,49.70
2018-05-09T21:24:27.724Z,49.72
2018-05-09T21:26:55.330Z,49.90
2018-05-09T21:29:22.946Z,50.00
2018-05-09T21:31:50.545Z,49.98
2018-05-09T21:34:18.139Z,50.11
2018-05-09T21:36:45.759Z,50.24
2018-05-09T21:39:13.353Z,50.51
2018-05-09T21:41:40.962Z,50.57
2018-05-09T21:44:09.543Z,50.59
2018-05-09T21:46:37.189Z,50.65
2018-05-09T21:49:04.787Z,50.81
2018-05-09T21:51:32.406Z,50.99
2018-05-09T21:54:00.005Z,51.34
2018-05-09T21:56:27.802Z,51.43
2018-05-09T21:58:55.431Z,51.49
2018-05-09T22:01:23.019Z,51.54
2018-05-09T22:03:50.607Z,51.53
2018-05-09T22:06:18.245Z,51.56
2018-05-09T22:08:45.838Z,51.86
2018-05-09T22:11:13.435Z,51.74
2018-05-09T22:13:41.061Z,51.78
2018-05-09T22:16:08.653Z,52.05
2018-05-09T22:18:36.299Z,51.74
2018-05-09T22:21:03.922Z,51.92
2018-05-09T22:23:31.582Z,52.08
2018-05-09T22:25:59.158Z,52.22
2018-05-09T22:28:26.792Z,52.42
2018-05-09T22:30:54.374Z,52.89
2018-05-09T22:33:21.971Z,53.16
2018-05-09T22:38:39.774Z,53.09
2018-05-09T22:41:07.383Z,53.33
2018-05-09T22:43:34.984Z,53.29
2018-05-09T22:46:03.189Z,53.78
2018-05-09T22:48:30.864Z,53.92
2018-05-09T22:50:58.581Z,53.88
2018-05-09T22:53:26.214Z,53.98
2018-05-09T22:55:53.816Z,54.20
2018-05-09T22:58:21.533Z,54.66
2018-05-09T23:00:49.131Z,55.34
2018-05-09T23:03:16.818Z,55.14
2018-05-09T23:05:44.403Z,55.16
2018-05-09T23:08:12.022Z,55.03
2018-05-09T23:10:39.615Z,54.96
2018-05-09T23:13:07.415Z,55.43
2018-05-09T23:15:35.021Z,55.55
2018-05-09T23:18:02.639Z,56.15
2018-05-09T23:20:30.234Z,56.58
2018-05-09T23:22:57.850Z,56.56
2018-05-09T23:25:25.439Z,56.84
2018-05-09T23:27:53.051Z,56.69
2018-05-09T23:30:20.638Z,56.99
2018-05-09T23:32:48.258Z,58.14
2018-05-09T23:35:15.859Z,57.91
2018-05-09T23:37:43.464Z,57.97
2018-05-09T23:40:11.174Z,58.28
2018-05-09T23:42:41.382Z,58.40
2018-05-09T23:45:09.002Z,58.91
2018-05-09T23:47:36.736Z,59.08
2018-05-09T23:50:04.351Z,59.37
2018-05-09T23:52:31.955Z,59.43
2018-05-09T23:54:59.595Z,60.05
2018-05-09T23:57:27.218Z,60.05
2018-05-09T23:59:54.819Z,60.04
